Meteo Giornale » Osservazioni meteo Stati Uniti (USA) » Fort Yukon
ore: 21:56 - Osservazioni Meteo Fort Yukon
Lat. 66° 34' N Lon. 145° 16' W Alt. 431 metri s.l.m.
8 °C
Coperto
Temp. 24 Ore
7 °C
13 °C
Nord
0 Km/h
Dew point 7 °C
Umidità 93 %
Visibilità 10 Km
Il sole sorge alle ore 06:12
Il sole tramonta alle ore 21:10
| Data e Ora | Cielo e Fenomeni | T °C | DP °C | Um. % | Pres. hPa | Vis. km | Vento km/h | |
|---|---|---|---|---|---|---|---|---|
| Oggi h: 21:56 | Coperto | 8 | 7 | 93 | 1007 | 10 | N 0 | |
| Oggi h: 20:56 | Molto Nuvoloso | 8 | 7 | 93 | 1007 | 10 | N 0 | |
| Oggi h: 19:56 | Poco Nuvoloso | 11 | 7 | 76 | 1006 | 10 | N 0 | |
| Oggi h: 19:47 | Nuvoloso | 11 | 7 | 76 | 1006 | 10 | N 0 | |
| Oggi h: 19:19 | Coperto | 11 | 7 | 76 | 1006 | 10 | N 7.4 | |
| Oggi h: 18:56 | Coperto | 13 | 7 | 66 | 1006 | 10 | O 9.3 | |
| Oggi h: 17:56 | Coperto | 13 | 7 | 66 | 1006 | 10 | N 5.5 | |
| Oggi h: 16:56 | Coperto | 13 | 7 | 66 | 1006 | 10 | N 7.4 | |
| Oggi h: 15:56 | Molto Nuvoloso | 12 | 7 | 71 | 1005 | 10 | NO 7.4 | |
| Oggi h: 14:56 | Molto Nuvoloso | 12 | 7 | 71 | 1005 | 10 | N 5.5 | |
| Oggi h: 14:48 | Molto Nuvoloso | 11 | 7 | 76 | 1005 | 10 | N 5.5 | |
| Oggi h: 13:56 | Coperto | 11 | 7 | 76 | 1005 | 10 | N 5.5 | |
| Oggi h: 13:24 | Coperto | 10 | 7 | 81 | 1005 | 10 | N 5.5 | |
| Oggi h: 13:01 | Coperto | 9 | 7 | 87 | 1005 | 10 | N 0 | |
| Oggi h: 12:56 | Coperto | 10 | 7 | 81 | 1005 | 10 | N 5.5 | |
| Oggi h: 11:56 | Pioggia | 9 | 7 | 87 | 1005 | 10 | O 7.4 | |
| Oggi h: 10:56 | Pioggia | 8 | 7 | 93 | 1004 | 10 | N 5.5 | |
| Oggi h: 09:56 | Molto Nuvoloso | 7 | 6 | 93 | 1004 | 10 | N 5.5 | |
| Oggi h: 09:40 | Pioggia | 7 | 6 | 93 | 1004 | 10 | N 0 | |
| Oggi h: 08:56 | Pioggia | 7 | 6 | 93 | 1004 | 10 | N 0 | |
| Oggi h: 08:52 | Pioggia | 7 | 6 | 93 | 1004 | 10 | N 0 | |
| Oggi h: 07:56 | Coperto | 7 | 6 | 93 | 1004 | 10 | N 0 | |
| Oggi h: 07:06 | Coperto | 7 | 6 | 93 | 1003 | 10 | N 0 | |
| Oggi h: 06:56 | Coperto | 7 | 6 | 93 | 1003 | 10 | N 0 | |
| Oggi h: 05:56 | Coperto | 7 | 6 | 93 | 1003 | 10 | N 0 | |
| Oggi h: 05:39 | Coperto | 7 | 6 | 93 | 1003 | 10 | N 0 | |
| Oggi h: 05:05 | Coperto | 7 | 6 | 93 | 1003 | 10 | N 0 | |
| Oggi h: 04:56 | Coperto | 7 | 6 | 93 | 1003 | 10 | N 0 | |
| Oggi h: 04:49 | Coperto | 7 | 6 | 93 | 1003 | 10 | N 0 | |
| Oggi h: 03:56 | Pioggia | 7 | 7 | 100 | 1003 | 10 | N 0 | |
| Oggi h: 02:56 | Pioggia | 8 | 7 | 93 | 1003 | 10 | N 5.5 | |
| Oggi h: 01:56 | Coperto | 8 | 7 | 93 | 1003 | 10 | N 5.5 | |
| Oggi h: 00:56 | Pioggia | 7 | 7 | 100 | 1003 | 10 | N 0 | |
| Ieri h: 23:56 | Pioggia | 9 | 8 | 93 | 1003 | 10 | N 0 | |
| Ieri h: 22:56 | Coperto | 8 | 8 | 100 | 1003 | 10 | N 0 | |



